Time;durP1;ratioP1;P1;durP2;ratioP2;P2;SDS_P1;SDS_P2;PMS_P1;PMS_P2;Temp;Humidity;BMP_temperature;BMP_pressure;BME280_temperature;BME280_humidity;BME280_pressure;Samples;Min_cycle;Max_cycle;Signal;HPM_P1;HPM_P2
2022/05/20 00:00:43;;;;;;;1999.90;697.42;;;;;;;;;;6333428;22;20341;-90
2022/05/20 00:03:09;;;;;;;1999.90;695.28;;;;;;;;;;6332848;22;20749;-88
2022/05/20 00:05:36;;;;;;;1999.90;693.15;;;;;;;;;;6333823;22;20381;-86
2022/05/20 00:08:02;;;;;;;1999.90;692.72;;;;;;;;;;6334031;22;20338;-87
2022/05/20 00:10:28;;;;;;;1999.90;692.22;;;;;;;;;;6334561;22;20905;-87
2022/05/20 00:12:55;;;;;;;1999.90;701.43;;;;;;;;;;6334583;22;20337;-87
2022/05/20 00:15:23;;;;;;;1999.90;695.28;;;;;;;;;;6334638;22;20345;-88
2022/05/20 00:17:49;;;;;;;1999.90;693.75;;;;;;;;;;6305759;22;20677;-87
2022/05/20 00:20:16;;;;;;;1999.90;693.63;;;;;;;;;;6334291;22;20403;-87
2022/05/20 00:22:42;;;;;;;1999.90;688.60;;;;;;;;;;6334483;22;20352;-90
2022/05/20 00:27:54;;;;;;;1999.90;690.42;;;;;;;;;;6332560;22;20398;-88
2022/05/20 00:30:20;;;;;;;1999.90;686.78;;;;;;;;;;6333234;22;20441;-89
2022/05/20 00:32:46;;;;;;;1999.90;694.40;;;;;;;;;;6333899;22;20385;-86
2022/05/20 00:35:13;;;;;;;1999.90;690.03;;;;;;;;;;6334777;22;20414;-86
2022/05/20 00:37:43;;;;;;;1999.90;694.33;;;;;;;;;;6307213;22;20353;-88
2022/05/20 00:40:11;;;;;;;1999.90;685.50;;;;;;;;;;6334140;22;20345;-88
2022/05/20 00:42:37;;;;;;;1999.90;678.63;;;;;;;;;;6334306;22;20345;-85
2022/05/20 00:45:04;;;;;;;1999.90;682.88;;;;;;;;;;6334867;22;20420;-86
2022/05/20 00:47:30;;;;;;;1999.90;685.87;;;;;;;;;;6335448;22;20345;-86
2022/05/20 00:49:57;;;;;;;1999.90;689.67;;;;;;;;;;6333614;22;20373;-87
2022/05/20 00:52:26;;;;;;;1999.90;673.47;;;;;;;;;;6333115;22;20349;-91
2022/05/20 00:54:53;;;;;;;1999.90;674.70;;;;;;;;;;6332777;22;20341;-87
2022/05/20 00:57:25;;;;;;;1999.90;681.25;;;;;;;;;;6332575;22;20828;-87
2022/05/20 00:59:52;;;;;;;1999.90;684.05;;;;;;;;;;6333778;22;20393;-87
2022/05/20 01:02:20;;;;;;;1999.90;686.75;;;;;;;;;;6333601;22;20349;-87
2022/05/20 01:04:47;;;;;;;1999.90;676.50;;;;;;;;;;6306309;22;20381;-88
2022/05/20 01:07:14;;;;;;;1999.90;672.28;;;;;;;;;;6333491;22;20341;-90
2022/05/20 01:09:40;;;;;;;1999.90;671.60;;;;;;;;;;6333748;22;20817;-88
2022/05/20 01:12:06;;;;;;;1999.90;676.88;;;;;;;;;;6335873;22;20345;-87
2022/05/20 01:14:32;;;;;;;1999.90;675.00;;;;;;;;;;6343826;22;20395;-86
2022/05/20 01:16:58;;;;;;;1999.90;666.70;;;;;;;;;;6343868;22;20638;-86
2022/05/20 01:19:40;;;;;;;1999.90;674.47;;;;;;;;;;6347152;22;20375;-86
2022/05/20 01:22:09;;;;;;;1999.90;665.87;;;;;;;;;;6342466;22;20345;-86
2022/05/20 01:24:35;;;;;;;1999.90;667.15;;;;;;;;;;6336548;22;20372;-87
2022/05/20 01:27:01;;;;;;;1999.90;667.70;;;;;;;;;;6335039;22;20342;-87
2022/05/20 01:29:27;;;;;;;1999.90;663.95;;;;;;;;;;6333693;22;20828;-89
2022/05/20 01:31:53;;;;;;;1999.90;662.60;;;;;;;;;;6306415;22;20351;-86
2022/05/20 01:34:20;;;;;;;1999.90;663.95;;;;;;;;;;6332814;22;20349;-87
2022/05/20 01:36:46;;;;;;;1999.90;659.13;;;;;;;;;;6332239;22;20353;-88
2022/05/20 01:39:12;;;;;;;1999.90;653.38;;;;;;;;;;6305660;22;20364;-86
2022/05/20 01:41:46;;;;;;;1999.90;662.30;;;;;;;;;;6333924;22;20333;-86
2022/05/20 01:44:17;;;;;;;1999.90;654.67;;;;;;;;;;6304982;22;20424;-87
2022/05/20 01:46:59;;;;;;;1999.90;659.92;;;;;;;;;;6332314;22;20337;-87
2022/05/20 01:49:25;;;;;;;1997.73;659.47;;;;;;;;;;6334297;22;20482;-87
2022/05/20 01:52:10;;;;;;;1999.90;694.95;;;;;;;;;;6332686;22;20379;-87
2022/05/20 01:54:45;;;;;;;1999.90;717.70;;;;;;;;;;6334107;22;20448;-87
2022/05/20 01:57:15;;;;;;;1999.90;721.47;;;;;;;;;;6331598;22;20404;-86
2022/05/20 01:59:46;;;;;;;1999.90;724.35;;;;;;;;;;6332351;22;20368;-86
2022/05/20 02:02:15;;;;;;;1999.90;726.05;;;;;;;;;;6332136;22;20369;-86
2022/05/20 02:04:46;;;;;;;1999.90;725.67;;;;;;;;;;6331937;22;20363;-87
2022/05/20 02:07:17;;;;;;;1999.90;726.25;;;;;;;;;;6331944;22;20362;-86
2022/05/20 02:09:46;;;;;;;1999.90;726.25;;;;;;;;;;6332448;22;20332;-87
2022/05/20 02:12:15;;;;;;;1999.90;726.67;;;;;;;;;;6332324;22;20344;-86
2022/05/20 02:14:54;;;;;;;1999.90;729.25;;;;;;;;;;6334360;22;20337;-87
2022/05/20 02:17:29;;;;;;;1999.90;730.47;;;;;;;;;;6332201;22;20342;-87
2022/05/20 02:19:57;;;;;;;1999.90;732.58;;;;;;;;;;6304285;22;20357;-87
2022/05/20 02:22:32;;;;;;;1999.90;732.80;;;;;;;;;;6331995;22;20843;-87
2022/05/20 02:24:59;;;;;;;1999.90;734.00;;;;;;;;;;6332165;22;20396;-87
2022/05/20 02:27:27;;;;;;;1999.90;732.05;;;;;;;;;;6333023;22;20345;-88
2022/05/20 02:29:55;;;;;;;1999.90;732.22;;;;;;;;;;6333172;22;20349;-87
2022/05/20 02:32:21;;;;;;;1999.90;737.80;;;;;;;;;;6333274;22;20337;-86
2022/05/20 02:34:49;;;;;;;1999.90;724.67;;;;;;;;;;6306332;22;20361;-87
2022/05/20 02:37:24;;;;;;;1999.90;726.00;;;;;;;;;;6334197;22;20394;-87
2022/05/20 02:39:51;;;;;;;1999.90;726.60;;;;;;;;;;6333816;22;20345;-87
2022/05/20 02:42:17;;;;;;;1999.90;727.33;;;;;;;;;;6334613;22;20346;-88
2022/05/20 02:44:43;;;;;;;1999.90;728.20;;;;;;;;;;6332314;22;20493;-86
2022/05/20 02:47:10;;;;;;;1999.90;719.42;;;;;;;;;;6335235;22;20819;-89
2022/05/20 02:49:36;;;;;;;1999.90;723.47;;;;;;;;;;6334013;22;20377;-87
2022/05/20 02:52:02;;;;;;;1999.90;720.80;;;;;;;;;;6340169;22;20355;-86
2022/05/20 02:54:28;;;;;;;1999.90;732.00;;;;;;;;;;6335123;22;20344;-89
2022/05/20 02:56:54;;;;;;;1999.90;722.30;;;;;;;;;;6331838;22;20375;-88
2022/05/20 03:04:50;;;;;;;1999.90;720.17;;;;;;;;;;6331276;22;20462;-87
2022/05/20 03:07:16;;;;;;;1999.90;722.20;;;;;;;;;;6331854;22;20853;-86
2022/05/20 03:09:42;;;;;;;1999.90;714.78;;;;;;;;;;6333211;22;20840;-90
2022/05/20 03:12:08;;;;;;;1999.90;717.47;;;;;;;;;;6331527;22;20420;-85
2022/05/20 03:14:34;;;;;;;1999.90;711.05;;;;;;;;;;6331957;22;20625;-88
2022/05/20 03:17:01;;;;;;;1999.90;714.97;;;;;;;;;;6331579;22;20337;-86
2022/05/20 03:19:30;;;;;;;1999.90;711.40;;;;;;;;;;6331848;22;20337;-85
2022/05/20 03:21:57;;;;;;;1999.90;718.50;;;;;;;;;;6331447;22;20363;-86
2022/05/20 03:24:23;;;;;;;1999.90;715.28;;;;;;;;;;6304185;22;20373;-87
2022/05/20 03:26:49;;;;;;;1999.90;714.72;;;;;;;;;;6331952;22;20827;-87
2022/05/20 03:29:16;;;;;;;1999.90;709.05;;;;;;;;;;6331916;22;20877;-87
2022/05/20 03:31:42;;;;;;;1999.90;710.30;;;;;;;;;;6333861;22;20420;-88
2022/05/20 03:34:09;;;;;;;1999.90;703.17;;;;;;;;;;6331700;22;20349;-90
2022/05/20 03:36:37;;;;;;;1999.90;703.63;;;;;;;;;;6332302;22;20397;-88
2022/05/20 03:39:03;;;;;;;1999.90;712.53;;;;;;;;;;6303469;22;20451;-88
2022/05/20 03:41:30;;;;;;;1999.90;718.10;;;;;;;;;;6303614;22;20349;-87
2022/05/20 03:43:56;;;;;;;1999.90;707.13;;;;;;;;;;6331840;22;20364;-86
2022/05/20 03:46:22;;;;;;;1999.90;710.70;;;;;;;;;;6331758;22;20829;-85
2022/05/20 03:48:48;;;;;;;1999.90;716.65;;;;;;;;;;6331328;22;20344;-88
2022/05/20 03:51:16;;;;;;;1999.90;700.40;;;;;;;;;;6333128;22;20801;-87
2022/05/20 03:53:42;;;;;;;1999.90;706.60;;;;;;;;;;6337940;22;20356;-86
2022/05/20 03:56:08;;;;;;;1999.90;693.63;;;;;;;;;;6341098;22;20341;-87
2022/05/20 03:58:34;;;;;;;1999.90;696.28;;;;;;;;;;6331404;22;20345;-87
2022/05/20 04:03:46;;;;;;;1999.90;699.15;;;;;;;;;;6333610;22;20769;-85
2022/05/20 04:06:13;;;;;;;1999.90;694.97;;;;;;;;;;6334257;22;20345;-86
2022/05/20 04:08:39;;;;;;;1999.90;692.97;;;;;;;;;;6332728;22;20332;-87
2022/05/20 04:11:11;;;;;;;1999.90;686.83;;;;;;;;;;6333098;22;20345;-86
2022/05/20 04:13:41;;;;;;;1999.90;678.00;;;;;;;;;;6333218;22;20352;-86
2022/05/20 04:16:08;;;;;;;1999.90;684.60;;;;;;;;;;6333017;22;20594;-88
2022/05/20 04:18:35;;;;;;;1999.90;669.05;;;;;;;;;;6306048;22;20483;-86
2022/05/20 04:21:01;;;;;;;1999.90;669.20;;;;;;;;;;6325345;22;20835;-87
2022/05/20 04:23:27;;;;;;;1999.90;671.67;;;;;;;;;;6332792;22;20338;-86
2022/05/20 04:25:53;;;;;;;1999.90;670.60;;;;;;;;;;6305475;22;20802;-87
2022/05/20 04:28:19;;;;;;;1981.22;661.22;;;;;;;;;;6334167;22;20029;-87
2022/05/20 04:30:45;;;;;;;1999.90;693.95;;;;;;;;;;6306347;22;20805;-91
2022/05/20 04:33:13;;;;;;;1999.90;691.20;;;;;;;;;;6332569;22;20403;-87
2022/05/20 04:35:39;;;;;;;1999.90;693.70;;;;;;;;;;6305067;22;20450;-86
2022/05/20 04:38:05;;;;;;;1999.90;698.33;;;;;;;;;;6305474;22;20684;-85
2022/05/20 04:40:31;;;;;;;1999.90;705.40;;;;;;;;;;6333395;22;20420;-87
2022/05/20 04:48:14;;;;;;;1999.90;691.80;;;;;;;;;;6334141;22;20344;-85
2022/05/20 04:50:40;;;;;;;1999.90;701.40;;;;;;;;;;6333660;22;20352;-86
2022/05/20 04:53:06;;;;;;;1999.90;704.40;;;;;;;;;;6333486;22;20341;-85
2022/05/20 04:55:33;;;;;;;1999.90;694.72;;;;;;;;;;6332370;22;20341;-85
2022/05/20 04:57:59;;;;;;;1999.90;705.78;;;;;;;;;;6332421;22;20348;-86
2022/05/20 05:00:29;;;;;;;1999.90;695.50;;;;;;;;;;6333500;22;20337;-89
2022/05/20 05:02:55;;;;;;;1901.78;639.55;;;;;;;;;;6334876;22;20073;-84
2022/05/20 05:05:23;;;;;;;1999.90;679.90;;;;;;;;;;6333592;22;20376;-86
2022/05/20 05:07:50;;;;;;;1999.90;690.72;;;;;;;;;;6306731;22;20353;-86
2022/05/20 05:10:20;;;;;;;1999.90;698.72;;;;;;;;;;6332779;22;20340;-86
2022/05/20 05:12:46;;;;;;;1999.90;694.30;;;;;;;;;;6332887;22;20697;-88
2022/05/20 05:15:13;;;;;;;1999.90;686.15;;;;;;;;;;6333936;22;20844;-85
2022/05/20 05:20:26;;;;;;;1999.90;681.10;;;;;;;;;;6331703;22;20670;-86
2022/05/20 05:22:53;;;;;;;1999.90;667.78;;;;;;;;;;6333126;22;20345;-87
2022/05/20 05:25:20;;;;;;;1999.90;671.47;;;;;;;;;;6334101;22;20808;-86
2022/05/20 05:27:46;;;;;;;1999.90;669.90;;;;;;;;;;6333459;22;20348;-85
2022/05/20 05:30:12;;;;;;;1999.90;666.45;;;;;;;;;;6333033;22;20822;-86
2022/05/20 05:32:38;;;;;;;1999.90;675.13;;;;;;;;;;6332797;22;20673;-87
2022/05/20 05:35:06;;;;;;;1962.20;649.55;;;;;;;;;;6335369;22;20083;-88
2022/05/20 05:37:35;;;;;;;1999.90;686.42;;;;;;;;;;6333297;22;20851;-87
2022/05/20 05:40:01;;;;;;;1999.90;698.67;;;;;;;;;;6333110;22;20348;-86
2022/05/20 05:42:28;;;;;;;1999.90;696.10;;;;;;;;;;6333385;22;20385;-88
2022/05/20 05:44:55;;;;;;;1999.90;694.00;;;;;;;;;;6333675;22;20380;-89
2022/05/20 05:47:21;;;;;;;1999.90;688.10;;;;;;;;;;6333365;22;20341;-85
2022/05/20 05:49:47;;;;;;;1999.90;687.40;;;;;;;;;;6333830;22;20341;-86
2022/05/20 05:52:13;;;;;;;1999.90;689.50;;;;;;;;;;6332745;22;20375;-88
2022/05/20 05:54:39;;;;;;;1999.90;687.03;;;;;;;;;;6332460;22;20419;-87
2022/05/20 05:57:06;;;;;;;1999.90;691.45;;;;;;;;;;6333032;22;20423;-88
2022/05/20 05:59:32;;;;;;;1999.90;690.80;;;;;;;;;;6332881;22;20825;-86
2022/05/20 06:01:59;;;;;;;1999.90;682.40;;;;;;;;;;6304751;22;20414;-88
2022/05/20 06:04:26;;;;;;;1999.90;686.65;;;;;;;;;;6332459;22;20375;-91
2022/05/20 06:06:52;;;;;;;1999.90;683.88;;;;;;;;;;6304710;22;20855;-86
2022/05/20 06:09:18;;;;;;;1999.90;687.53;;;;;;;;;;6333878;22;20830;-87
2022/05/20 06:11:44;;;;;;;1999.90;683.97;;;;;;;;;;6332925;22;20369;-89
2022/05/20 06:14:10;;;;;;;1999.90;676.40;;;;;;;;;;6332571;22;20352;-86
2022/05/20 06:16:38;;;;;;;1999.90;674.35;;;;;;;;;;6332783;22;20341;-88
2022/05/20 06:19:04;;;;;;;1999.90;679.00;;;;;;;;;;6304771;22;20360;-88
2022/05/20 06:21:30;;;;;;;1999.90;675.28;;;;;;;;;;6332241;22;20341;-88
2022/05/20 06:23:56;;;;;;;1999.90;674.47;;;;;;;;;;6332143;22;20380;-89
2022/05/20 06:26:22;;;;;;;1999.90;674.63;;;;;;;;;;6333309;22;20347;-88
2022/05/20 06:28:48;;;;;;;1999.90;678.42;;;;;;;;;;6334873;22;20490;-92
2022/05/20 06:31:15;;;;;;;1999.90;684.53;;;;;;;;;;6332902;22;20379;-88
2022/05/20 06:33:41;;;;;;;1999.90;697.03;;;;;;;;;;6337252;22;20808;-86
2022/05/20 06:41:36;;;;;;;1999.90;702.08;;;;;;;;;;6332258;22;20363;-90
2022/05/20 06:44:02;;;;;;;1999.90;690.20;;;;;;;;;;6332273;22;20392;-89
2022/05/20 06:46:29;;;;;;;1999.90;686.03;;;;;;;;;;6332084;22;20402;-88
2022/05/20 06:48:56;;;;;;;1999.90;688.00;;;;;;;;;;6332249;22;20406;-85
2022/05/20 06:51:23;;;;;;;1999.90;688.42;;;;;;;;;;6333502;22;20341;-89
2022/05/20 06:53:52;;;;;;;1999.90;692.78;;;;;;;;;;6333139;22;20337;-92
2022/05/20 06:56:19;;;;;;;1999.90;681.53;;;;;;;;;;6332736;22;20340;-87
2022/05/20 06:58:46;;;;;;;1999.90;687.80;;;;;;;;;;6332319;22;20356;-88
2022/05/20 07:01:12;;;;;;;1999.90;684.70;;;;;;;;;;6332265;22;20337;-90
2022/05/20 07:03:39;;;;;;;1999.90;685.15;;;;;;;;;;6332095;22;20344;-90
2022/05/20 07:06:05;;;;;;;1999.90;683.60;;;;;;;;;;6332290;22;20813;-88
2022/05/20 07:08:32;;;;;;;1999.90;686.10;;;;;;;;;;6332674;22;20336;-90
2022/05/20 07:11:01;;;;;;;1999.90;685.50;;;;;;;;;;6333069;22;20345;-89
2022/05/20 07:13:27;;;;;;;1999.90;686.35;;;;;;;;;;6332376;22;20390;-87
2022/05/20 07:15:53;;;;;;;1999.90;679.47;;;;;;;;;;6333235;22;20341;-90
2022/05/20 07:18:19;;;;;;;1999.90;674.80;;;;;;;;;;6333403;22;20006;-90
2022/05/20 07:20:45;;;;;;;1999.90;689.22;;;;;;;;;;6332329;22;20659;-87
2022/05/20 07:23:11;;;;;;;1999.90;686.03;;;;;;;;;;6332289;22;20341;-89
2022/05/20 07:25:38;;;;;;;1999.90;697.57;;;;;;;;;;6332096;22;20761;-90
2022/05/20 07:28:05;;;;;;;1999.90;695.22;;;;;;;;;;6332344;22;20349;-89
2022/05/20 07:30:32;;;;;;;1999.90;686.38;;;;;;;;;;6331913;22;20343;-92
2022/05/20 07:32:58;;;;;;;1999.90;690.53;;;;;;;;;;6332342;22;20376;-90
2022/05/20 07:35:24;;;;;;;1999.90;689.35;;;;;;;;;;6333313;22;20406;-90
2022/05/20 07:37:50;;;;;;;1999.90;685.20;;;;;;;;;;6332997;22;20341;-87
2022/05/20 07:40:17;;;;;;;1999.90;689.83;;;;;;;;;;6334066;22;20348;-89
2022/05/20 07:42:43;;;;;;;1999.90;690.58;;;;;;;;;;6333776;22;20364;-88
2022/05/20 07:45:09;;;;;;;1999.90;695.85;;;;;;;;;;6333634;22;20825;-89
2022/05/20 07:47:35;;;;;;;1999.90;685.13;;;;;;;;;;6333944;22;20643;-91
2022/05/20 07:50:03;;;;;;;1999.90;692.87;;;;;;;;;;6333893;22;20435;-88
2022/05/20 07:55:15;;;;;;;1999.90;690.63;;;;;;;;;;6333426;22;20340;-87
2022/05/20 07:57:41;;;;;;;1999.90;684.72;;;;;;;;;;6333879;22;20364;-87
2022/05/20 08:00:12;;;;;;;1999.90;685.17;;;;;;;;;;6333931;22;20368;-88
2022/05/20 08:02:41;;;;;;;1999.90;692.05;;;;;;;;;;6333946;22;20341;-88
2022/05/20 08:05:07;;;;;;;1999.90;686.17;;;;;;;;;;6333489;22;20701;-93
2022/05/20 08:07:41;;;;;;;1999.90;689.53;;;;;;;;;;6333922;22;20333;-89
2022/05/20 08:10:09;;;;;;;1999.90;681.70;;;;;;;;;;6333550;22;20348;-91
2022/05/20 08:12:35;;;;;;;1999.90;679.60;;;;;;;;;;6333662;22;20333;-90
2022/05/20 08:15:01;;;;;;;1999.90;678.65;;;;;;;;;;6333756;22;20348;-90
2022/05/20 08:17:29;;;;;;;1999.90;673.83;;;;;;;;;;6334485;22;20429;-89
2022/05/20 08:19:55;;;;;;;1999.90;680.50;;;;;;;;;;6334328;22;20368;-89
2022/05/20 08:22:22;;;;;;;1999.90;680.60;;;;;;;;;;6333135;22;20345;-86
2022/05/20 08:24:58;;;;;;;1999.90;687.65;;;;;;;;;;6333135;22;20405;-91
2022/05/20 08:27:25;;;;;;;1999.90;674.05;;;;;;;;;;6333342;22;20345;-87
2022/05/20 08:29:51;;;;;;;1999.90;675.08;;;;;;;;;;6306814;22;20531;-90
2022/05/20 08:32:17;;;;;;;1999.90;705.60;;;;;;;;;;6333138;22;20440;-86
2022/05/20 08:34:44;;;;;;;1999.90;694.97;;;;;;;;;;6333058;22;20345;-88
2022/05/20 08:37:11;;;;;;;1999.90;712.42;;;;;;;;;;6333000;22;20348;-88
2022/05/20 08:39:37;;;;;;;1999.90;710.83;;;;;;;;;;6333354;22;20352;-89
2022/05/20 08:42:04;;;;;;;1999.90;715.90;;;;;;;;;;6333142;22;20338;-88
2022/05/20 08:44:31;;;;;;;1999.90;715.53;;;;;;;;;;6333950;22;20460;-87
2022/05/20 08:47:14;;;;;;;1999.90;713.65;;;;;;;;;;6334166;22;20380;-91
2022/05/20 08:49:40;;;;;;;1999.90;711.30;;;;;;;;;;6332801;22;20372;-89
2022/05/20 08:52:06;;;;;;;1999.90;712.40;;;;;;;;;;6333240;22;20815;-90
2022/05/20 08:54:32;;;;;;;1999.90;715.78;;;;;;;;;;6333270;22;20398;-87
2022/05/20 08:57:09;;;;;;;1999.90;708.88;;;;;;;;;;6334100;22;20425;-86
2022/05/20 08:59:36;;;;;;;1999.90;713.10;;;;;;;;;;6333128;22;20329;-90
2022/05/20 09:02:02;;;;;;;1999.90;717.53;;;;;;;;;;6333113;22;20341;-89
2022/05/20 09:04:28;;;;;;;1999.90;722.15;;;;;;;;;;6333834;22;20465;-88
2022/05/20 09:07:01;;;;;;;1999.90;723.53;;;;;;;;;;6305315;22;20380;-89
2022/05/20 09:09:30;;;;;;;1999.90;717.75;;;;;;;;;;6334223;22;20345;-88
2022/05/20 09:11:57;;;;;;;1999.90;721.65;;;;;;;;;;6334022;22;20337;-90
2022/05/20 09:17:21;;;;;;;1999.90;707.78;;;;;;;;;;6352303;22;20355;-87
2022/05/20 09:19:56;;;;;;;1999.90;705.92;;;;;;;;;;6349294;22;20738;-91
2022/05/20 09:22:27;;;;;;;1999.90;714.38;;;;;;;;;;6334800;22;20672;-88
2022/05/20 09:24:53;;;;;;;1999.90;717.00;;;;;;;;;;6305734;22;20392;-89
2022/05/20 09:27:26;;;;;;;1999.90;714.92;;;;;;;;;;6332816;22;20365;-89
2022/05/20 09:29:57;;;;;;;1999.90;714.05;;;;;;;;;;6333050;22;20820;-89
2022/05/20 09:32:26;;;;;;;1999.90;734.63;;;;;;;;;;6332941;22;20849;-89
2022/05/20 09:35:01;;;;;;;1999.90;709.33;;;;;;;;;;6332611;22;20334;-88
2022/05/20 09:37:29;;;;;;;1999.90;716.10;;;;;;;;;;6332991;22;20341;-89
2022/05/20 09:39:55;;;;;;;1999.90;711.90;;;;;;;;;;6332526;22;20840;-88
2022/05/20 09:42:22;;;;;;;1999.90;710.95;;;;;;;;;;6332951;22;20341;-89
2022/05/20 09:44:55;;;;;;;1999.90;710.45;;;;;;;;;;6332728;22;20404;-90
2022/05/20 09:47:25;;;;;;;1999.90;708.42;;;;;;;;;;6332566;22;20341;-89
2022/05/20 09:49:53;;;;;;;1999.90;703.35;;;;;;;;;;6332820;22;20341;-88
2022/05/20 09:52:22;;;;;;;1999.90;704.08;;;;;;;;;;6304720;22;20432;-89
2022/05/20 09:54:50;;;;;;;1999.90;700.22;;;;;;;;;;6332641;22;20875;-91
2022/05/20 09:57:24;;;;;;;1999.90;705.78;;;;;;;;;;6305187;22;20352;-89
2022/05/20 10:00:04;;;;;;;1999.90;706.33;;;;;;;;;;6304598;22;20357;-90
2022/05/20 10:02:33;;;;;;;1999.90;694.20;;;;;;;;;;6305791;22;20349;-89
2022/05/20 10:05:11;;;;;;;1999.90;693.05;;;;;;;;;;6332484;22;20377;-88
2022/05/20 10:07:56;;;;;;;1999.90;690.15;;;;;;;;;;6332730;22;20813;-91
2022/05/20 10:10:51;;;;;;;1999.90;689.40;;;;;;;;;;6304641;22;20353;-88
2022/05/20 10:13:53;;;;;;;1999.90;690.30;;;;;;;;;;6272949;22;20809;-86
2022/05/20 10:16:32;;;;;;;1999.90;684.75;;;;;;;;;;6251615;22;20356;-88
2022/05/20 10:18:58;;;;;;;1999.90;683.00;;;;;;;;;;6332674;22;20333;-88
2022/05/20 10:21:24;;;;;;;1999.90;695.42;;;;;;;;;;6332108;22;20369;-87
2022/05/20 10:24:02;;;;;;;1999.90;696.33;;;;;;;;;;6332414;22;20368;-91
2022/05/20 10:26:43;;;;;;;1999.90;686.50;;;;;;;;;;6332356;22;20678;-88
2022/05/20 10:34:53;;;;;;;1999.90;683.88;;;;;;;;;;6329320;22;20667;-88
2022/05/20 10:37:25;;;;;;;1999.90;687.30;;;;;;;;;;6332924;22;20418;-88
2022/05/20 10:40:03;;;;;;;1999.90;693.75;;;;;;;;;;6304131;22;20345;-90
2022/05/20 10:42:48;;;;;;;1999.90;695.10;;;;;;;;;;6332327;22;20686;-89
2022/05/20 10:48:36;;;;;;;1999.90;685.35;;;;;;;;;;6206406;23;20390;-88
2022/05/20 10:51:21;;;;;;;1999.90;685.40;;;;;;;;;;6317061;22;20349;-88
2022/05/20 10:54:02;;;;;;;1999.90;687.42;;;;;;;;;;6332000;22;20340;-90
2022/05/20 10:56:33;;;;;;;1999.90;683.80;;;;;;;;;;6332013;22;20753;-87
2022/05/20 10:59:08;;;;;;;1999.90;680.42;;;;;;;;;;6331683;22;20341;-90
2022/05/20 11:01:40;;;;;;;1999.90;689.67;;;;;;;;;;6333190;22;20349;-89
2022/05/20 11:04:15;;;;;;;1999.90;682.35;;;;;;;;;;6332902;22;20448;-90
2022/05/20 11:06:44;;;;;;;1999.90;673.55;;;;;;;;;;6332742;22;20431;-89
2022/05/20 11:09:16;;;;;;;1999.90;694.38;;;;;;;;;;6331883;22;20340;-89
2022/05/20 11:11:56;;;;;;;1999.90;705.22;;;;;;;;;;6332187;22;20341;-87
2022/05/20 11:14:37;;;;;;;1999.90;707.80;;;;;;;;;;6334039;22;20348;-88
2022/05/20 11:17:15;;;;;;;1999.90;706.60;;;;;;;;;;6334133;22;20348;-90
2022/05/20 11:19:41;;;;;;;1999.90;712.50;;;;;;;;;;6333286;22;20333;-90
2022/05/20 11:22:23;;;;;;;1999.90;718.50;;;;;;;;;;6335076;22;20356;-88
2022/05/20 11:25:08;;;;;;;1999.90;728.10;;;;;;;;;;6327769;22;21194;-88
2022/05/20 11:27:36;;;;;;;1999.90;714.92;;;;;;;;;;6333034;22;20340;-85
2022/05/20 11:30:12;;;;;;;1999.90;709.15;;;;;;;;;;6305424;22;20694;-86
2022/05/20 11:33:11;;;;;;;1999.90;712.20;;;;;;;;;;6334650;22;20333;-89
2022/05/20 11:35:40;;;;;;;1999.90;709.27;;;;;;;;;;6250446;22;20349;-92
2022/05/20 11:38:12;;;;;;;1999.90;718.90;;;;;;;;;;6334735;22;20347;-87
2022/05/20 11:40:43;;;;;;;1999.90;706.25;;;;;;;;;;6334245;22;20347;-87
2022/05/20 11:43:10;;;;;;;1999.90;706.27;;;;;;;;;;6306356;22;20416;-87
2022/05/20 11:45:56;;;;;;;1999.90;707.38;;;;;;;;;;6333826;22;20375;-87
2022/05/20 11:48:37;;;;;;;1999.90;712.88;;;;;;;;;;6333308;22;20345;-89
2022/05/20 11:51:03;;;;;;;1999.90;716.67;;;;;;;;;;6334184;22;20347;-88
2022/05/20 11:53:31;;;;;;;1999.90;718.53;;;;;;;;;;6350041;22;20621;-88
2022/05/20 11:55:57;;;;;;;1999.90;713.77;;;;;;;;;;6305464;22;20719;-90
2022/05/20 11:58:33;;;;;;;1999.90;711.67;;;;;;;;;;6332972;22;20341;-91
2022/05/20 12:01:00;;;;;;;1999.90;708.58;;;;;;;;;;6339010;22;20817;-88
2022/05/20 12:03:28;;;;;;;1999.90;716.40;;;;;;;;;;6334835;22;20391;-88
2022/05/20 12:05:55;;;;;;;1999.90;710.35;;;;;;;;;;6333405;22;20467;-84
2022/05/20 12:08:40;;;;;;;1999.90;708.25;;;;;;;;;;6333243;22;20699;-91
2022/05/20 12:11:24;;;;;;;1999.90;707.47;;;;;;;;;;6333920;22;20346;-86
2022/05/20 12:13:58;;;;;;;1999.90;696.17;;;;;;;;;;6306714;22;20006;-88
2022/05/20 12:16:25;;;;;;;1999.90;704.50;;;;;;;;;;6305113;22;20372;-87
2022/05/20 12:24:43;;;;;;;1999.90;714.93;;;;;;;;;;6332474;22;20442;-86
2022/05/20 12:27:32;;;;;;;1999.90;717.43;;;;;;;;;;6334284;22;20348;-89
2022/05/20 12:29:58;;;;;;;1999.90;716.53;;;;;;;;;;6333006;22;20345;-86
2022/05/20 12:32:29;;;;;;;1999.90;715.63;;;;;;;;;;6332511;22;20394;-87
2022/05/20 12:35:14;;;;;;;1999.90;720.10;;;;;;;;;;6332421;22;20405;-87
2022/05/20 12:37:43;;;;;;;1999.90;721.05;;;;;;;;;;6333804;22;20466;-87
2022/05/20 12:40:36;;;;;;;1999.90;727.78;;;;;;;;;;6333572;22;20673;-89
2022/05/20 12:43:02;;;;;;;1999.90;722.17;;;;;;;;;;6274596;22;20544;-85
2022/05/20 12:45:31;;;;;;;1999.90;729.20;;;;;;;;;;6304851;22;20395;-87
2022/05/20 12:47:57;;;;;;;1999.90;713.45;;;;;;;;;;6332959;22;20376;-88
2022/05/20 12:50:26;;;;;;;1999.90;735.00;;;;;;;;;;6332664;22;20345;-87
2022/05/20 12:52:53;;;;;;;1999.90;739.42;;;;;;;;;;6332742;22;20337;-89
2022/05/20 12:55:34;;;;;;;1999.90;725.88;;;;;;;;;;6304657;22;20357;-87
2022/05/20 12:58:01;;;;;;;1999.90;718.25;;;;;;;;;;6333122;22;20394;-87
2022/05/20 13:00:33;;;;;;;1999.90;720.25;;;;;;;;;;6334202;22;20361;-87
2022/05/20 13:03:04;;;;;;;1999.90;733.97;;;;;;;;;;6332457;22;20348;-87
2022/05/20 13:05:35;;;;;;;1999.90;738.85;;;;;;;;;;6332223;22;20368;-90
2022/05/20 13:08:03;;;;;;;1999.90;722.63;;;;;;;;;;6332757;22;20375;-88
2022/05/20 13:10:30;;;;;;;1999.90;712.07;;;;;;;;;;6332603;22;20329;-89
2022/05/20 13:12:59;;;;;;;1999.90;700.00;;;;;;;;;;6334151;22;20236;-85
2022/05/20 13:15:25;;;;;;;1999.90;734.78;;;;;;;;;;6332155;22;20720;-88
2022/05/20 13:18:18;;;;;;;1999.90;744.10;;;;;;;;;;6332077;22;20337;-89
2022/05/20 13:20:45;;;;;;;1999.90;741.30;;;;;;;;;;6327294;22;20356;-85
2022/05/20 13:23:17;;;;;;;1999.90;742.28;;;;;;;;;;6333765;22;20342;-90
2022/05/20 13:25:44;;;;;;;1999.90;735.90;;;;;;;;;;6334454;22;20469;-91
2022/05/20 13:28:10;;;;;;;1999.90;745.00;;;;;;;;;;6333670;22;20337;-87
2022/05/20 13:30:36;;;;;;;1999.90;733.20;;;;;;;;;;6305658;22;20363;-87
2022/05/20 13:33:07;;;;;;;1999.90;738.55;;;;;;;;;;6332482;22;20377;-87
2022/05/20 13:35:59;;;;;;;1999.90;733.53;;;;;;;;;;6333904;22;20349;-88
2022/05/20 13:38:27;;;;;;;1999.90;729.42;;;;;;;;;;6305924;22;20421;-86
2022/05/20 13:40:54;;;;;;;1999.90;738.50;;;;;;;;;;6307853;22;20349;-87
2022/05/20 13:43:22;;;;;;;1999.90;726.42;;;;;;;;;;6333173;22;20345;-85
2022/05/20 13:51:26;;;;;;;1999.90;745.38;;;;;;;;;;6334828;22;20394;-91
2022/05/20 13:53:52;;;;;;;1999.90;745.10;;;;;;;;;;6336190;22;20334;-89
2022/05/20 13:56:18;;;;;;;1999.90;753.58;;;;;;;;;;6306622;22;20439;-85
2022/05/20 13:58:45;;;;;;;1999.90;742.72;;;;;;;;;;6331467;22;20914;-89
2022/05/20 14:01:13;;;;;;;1999.90;744.40;;;;;;;;;;6306000;22;20372;-87
2022/05/20 14:03:41;;;;;;;1999.90;741.10;;;;;;;;;;6332338;22;20337;-87
2022/05/20 14:06:14;;;;;;;1999.90;733.70;;;;;;;;;;6332702;22;20380;-90
2022/05/20 14:08:52;;;;;;;1999.90;741.93;;;;;;;;;;6331505;22;20409;-85
2022/05/20 14:11:19;;;;;;;1999.90;728.22;;;;;;;;;;6332366;22;20399;-86
2022/05/20 14:13:46;;;;;;;1999.90;719.40;;;;;;;;;;6305450;22;20006;-84
2022/05/20 14:16:17;;;;;;;1999.90;752.92;;;;;;;;;;6332738;22;20337;-85
2022/05/20 14:18:47;;;;;;;1999.90;745.42;;;;;;;;;;6332077;22;20341;-85
2022/05/20 14:21:14;;;;;;;1999.90;724.63;;;;;;;;;;6306082;22;19998;-85
2022/05/20 14:23:50;;;;;;;1999.90;736.72;;;;;;;;;;6331638;22;20349;-87
2022/05/20 14:26:20;;;;;;;1999.90;736.15;;;;;;;;;;6332435;22;20352;-87
2022/05/20 14:29:02;;;;;;;1999.90;746.38;;;;;;;;;;6331539;22;20720;-88
2022/05/20 14:31:35;;;;;;;1999.90;754.67;;;;;;;;;;6337322;22;20344;-86
2022/05/20 14:34:24;;;;;;;1999.90;743.95;;;;;;;;;;6345060;22;20339;-86
2022/05/20 14:36:51;;;;;;;1999.90;745.72;;;;;;;;;;6326775;22;20374;-84
2022/05/20 14:39:18;;;;;;;1999.90;749.65;;;;;;;;;;6342422;22;20403;-86
2022/05/20 14:41:54;;;;;;;1999.90;754.88;;;;;;;;;;6335361;22;20610;-84
2022/05/20 14:44:20;;;;;;;1999.90;747.88;;;;;;;;;;6332058;22;20360;-87